WTB161 LEBL-EDDS
Flight info
| Callsign | WTB161 |
|---|---|
| Flight time | 1h 43m |
| Altitude | 30000 |
| Route | DALIN DCT PIVUS DCT DIBER DCT ADITA DCT MAXIR/N0450F340 DCT LUSOL DCT BODRU DCT OKTET DCT IRMAR DCT KINES DCT VANAS DCT MOBLO DCT LAMUR DCT KORED DCT BERSU N871 DITON T163 ZUE T125 REUTL REUTL1W |
| Aircraft | B38M/M-SDE1FGHILORVWXY/HB1 |
Departure
| Time | 2026-05-07 15:11 |
|---|---|
| Airport | Josep Tarradellas Barcelona-El Prat Airport (LEBL) |
Arrival
| Time | 2026-05-07 16:54 |
|---|---|
| Airport | Stuttgart Airport (EDDS) |
| Time | Latitude | Longitude | Altitude | Speed | Heading |
|---|---|---|---|---|---|
| 2026-05-07 14:49 | 41.28979 | 2.07899 | 22 ft | 0 kts | 336° |
| 2026-05-07 15:03 | 41.28978 | 2.07900 | 20 ft | 2 kts | 336° |
| 2026-05-07 15:03 | 41.28958 | 2.07915 | 21 ft | 4 kts | 332° |
| 2026-05-07 15:04 | 41.28935 | 2.07934 | 21 ft | 4 kts | 316° |
| 2026-05-07 15:04 | 41.28920 | 2.07961 | 22 ft | 4 kts | 285° |
| 2026-05-07 15:04 | 41.28921 | 2.07988 | 20 ft | 1 kts | 245° |
| 2026-05-07 15:04 | 41.28923 | 2.07993 | 20 ft | 0 kts | 245° |
| 2026-05-07 15:07 | 41.28912 | 2.07963 | 22 ft | 10 kts | 245° |
| 2026-05-07 15:07 | 41.28862 | 2.07860 | 20 ft | 14 kts | 198° |
| 2026-05-07 15:08 | 41.28764 | 2.07901 | 22 ft | 16 kts | 154° |
| 2026-05-07 15:08 | 41.28670 | 2.07940 | 20 ft | 10 kts | 207° |
| 2026-05-07 15:08 | 41.28633 | 2.07853 | 21 ft | 12 kts | 248° |
| 2026-05-07 15:08 | 41.28596 | 2.07745 | 22 ft | 14 kts | 244° |
| 2026-05-07 15:09 | 41.28551 | 2.07618 | 20 ft | 16 kts | 244° |
| 2026-05-07 15:09 | 41.28471 | 2.07527 | 20 ft | 17 kts | 199° |
| 2026-05-07 15:09 | 41.28369 | 2.07444 | 21 ft | 18 kts | 201° |
| 2026-05-07 15:09 | 41.28251 | 2.07427 | 23 ft | 17 kts | 133° |
| 2026-05-07 15:10 | 41.28266 | 2.07547 | 22 ft | 15 kts | 65° |
| 2026-05-07 15:10 | 41.28341 | 2.07765 | 20 ft | 47 kts | 66° |
| 2026-05-07 15:10 | 41.28571 | 2.08437 | 22 ft | 110 kts | 65° |
| 2026-05-07 15:10 | 41.28947 | 2.09584 | 51 ft | 155 kts | 69° |
| 2026-05-07 15:11 | 41.29406 | 2.10950 | 572 ft | 158 kts | 67° |
| 2026-05-07 15:11 | 41.29758 | 2.12351 | 1223 ft | 165 kts | 78° |
| 2026-05-07 15:11 | 41.30011 | 2.13863 | 1888 ft | 174 kts | 83° |
| 2026-05-07 15:11 | 41.30027 | 2.15549 | 2521 ft | 192 kts | 98° |
| 2026-05-07 15:12 | 41.29741 | 2.17376 | 3219 ft | 206 kts | 102° |
| 2026-05-07 15:12 | 41.29430 | 2.19243 | 4243 ft | 209 kts | 102° |
| 2026-05-07 15:12 | 41.29118 | 2.21146 | 5231 ft | 212 kts | 102° |
| 2026-05-07 15:12 | 41.28806 | 2.23066 | 6181 ft | 215 kts | 102° |
| 2026-05-07 15:13 | 41.28489 | 2.25030 | 7064 ft | 218 kts | 102° |
| 2026-05-07 15:13 | 41.28168 | 2.27027 | 7880 ft | 225 kts | 102° |
| 2026-05-07 15:13 | 41.27838 | 2.29084 | 8735 ft | 229 kts | 102° |
| 2026-05-07 15:13 | 41.28979 | 2.07899 | 8966 ft | 6 kts | 336° |
| 2026-05-07 15:21 | 41.28969 | 2.07906 | 22 ft | 4 kts | 327° |
| 2026-05-07 15:21 | 41.28946 | 2.07924 | 21 ft | 4 kts | 326° |
| 2026-05-07 15:22 | 41.28926 | 2.07947 | 22 ft | 4 kts | 303° |
| 2026-05-07 15:22 | 41.28919 | 2.07977 | 20 ft | 4 kts | 258° |
| 2026-05-07 15:22 | 41.28923 | 2.07992 | 20 ft | 1 kts | 245° |
| 2026-05-07 15:22 | 41.28923 | 2.07993 | 20 ft | 0 kts | 245° |
| 2026-05-07 15:24 | 41.28919 | 2.07981 | 20 ft | 6 kts | 245° |
| 2026-05-07 15:24 | 41.28874 | 2.07873 | 21 ft | 19 kts | 220° |
| 2026-05-07 15:25 | 41.28766 | 2.07899 | 22 ft | 17 kts | 155° |
| 2026-05-07 15:25 | 41.28652 | 2.07969 | 20 ft | 19 kts | 155° |
| 2026-05-07 15:25 | 41.28578 | 2.07921 | 20 ft | 13 kts | 250° |
| 2026-05-07 15:25 | 41.28545 | 2.07798 | 20 ft | 15 kts | 250° |
| 2026-05-07 15:26 | 41.28498 | 2.07667 | 20 ft | 16 kts | 242° |
| 2026-05-07 15:26 | 41.28447 | 2.07522 | 21 ft | 18 kts | 245° |
| 2026-05-07 15:26 | 41.28336 | 2.07415 | 22 ft | 24 kts | 201° |
| 2026-05-07 15:26 | 41.28257 | 2.07521 | 24 ft | 21 kts | 65° |
| 2026-05-07 15:27 | 41.28369 | 2.07843 | 21 ft | 66 kts | 65° |
| 2026-05-07 15:27 | 41.28651 | 2.08664 | 23 ft | 126 kts | 65° |
| 2026-05-07 15:27 | 41.29039 | 2.09921 | 128 ft | 161 kts | 70° |
| 2026-05-07 15:27 | 41.29512 | 2.11245 | 841 ft | 158 kts | 72° |
| 2026-05-07 15:28 | 41.29823 | 2.12706 | 1381 ft | 166 kts | 78° |
| 2026-05-07 15:28 | 41.30041 | 2.14252 | 2061 ft | 179 kts | 87° |
| 2026-05-07 15:28 | 41.29959 | 2.15998 | 2667 ft | 198 kts | 102° |
| 2026-05-07 15:28 | 41.29656 | 2.17811 | 3534 ft | 202 kts | 102° |
| 2026-05-07 15:29 | 41.29349 | 2.19666 | 4363 ft | 209 kts | 102° |
| 2026-05-07 15:29 | 41.29040 | 2.21562 | 5246 ft | 211 kts | 102° |
| 2026-05-07 15:29 | 41.28728 | 2.23505 | 6031 ft | 220 kts | 102° |
| 2026-05-07 15:29 | 41.28410 | 2.25487 | 6983 ft | 219 kts | 102° |
| 2026-05-07 15:30 | 41.28092 | 2.27483 | 7875 ft | 222 kts | 102° |
| 2026-05-07 15:30 | 41.27765 | 2.29529 | 8670 ft | 230 kts | 102° |
| 2026-05-07 15:30 | 41.27479 | 2.31656 | 9406 ft | 241 kts | 97° |
| 2026-05-07 15:30 | 41.27248 | 2.33951 | 9941 ft | 261 kts | 98° |
| 2026-05-07 15:31 | 41.26990 | 2.36437 | 10411 ft | 281 kts | 98° |
| 2026-05-07 15:31 | 41.26708 | 2.39106 | 10860 ft | 302 kts | 98° |
| 2026-05-07 15:31 | 41.26405 | 2.41943 | 11282 ft | 322 kts | 98° |
| 2026-05-07 15:31 | 41.26077 | 2.44982 | 11737 ft | 340 kts | 98° |
| 2026-05-07 15:32 | 41.25735 | 2.48145 | 12331 ft | 351 kts | 99° |
| 2026-05-07 15:32 | 41.25385 | 2.51370 | 13193 ft | 354 kts | 99° |
| 2026-05-07 15:32 | 41.25178 | 2.54664 | 13921 ft | 361 kts | 87° |
| 2026-05-07 15:32 | 41.25796 | 2.57902 | 14587 ft | 369 kts | 65° |
| 2026-05-07 15:33 | 41.27168 | 2.60810 | 15296 ft | 372 kts | 55° |
| 2026-05-07 15:33 | 41.28659 | 2.63663 | 15933 ft | 379 kts | 56° |
| 2026-05-07 15:33 | 41.30250 | 2.66480 | 16574 ft | 383 kts | 46° |
| 2026-05-07 15:33 | 41.32367 | 2.68625 | 17269 ft | 386 kts | 27° |
| 2026-05-07 15:34 | 41.34820 | 2.70008 | 17849 ft | 391 kts | 20° |
| 2026-05-07 15:34 | 41.37395 | 2.71323 | 18434 ft | 395 kts | 20° |
| 2026-05-07 15:34 | 41.39951 | 2.72611 | 18967 ft | 400 kts | 21° |
| 2026-05-07 15:34 | 41.42339 | 2.74512 | 19497 ft | 404 kts | 41° |
| 2026-05-07 15:35 | 41.44163 | 2.77365 | 20010 ft | 407 kts | 59° |
| 2026-05-07 15:35 | 41.45670 | 2.80654 | 20483 ft | 413 kts | 58° |
| 2026-05-07 15:35 | 41.47231 | 2.83827 | 20992 ft | 417 kts | 57° |
| 2026-05-07 15:35 | 41.48844 | 2.87060 | 21503 ft | 421 kts | 57° |
| 2026-05-07 15:36 | 41.50485 | 2.90317 | 22002 ft | 425 kts | 57° |
| 2026-05-07 15:36 | 41.52151 | 2.93609 | 22508 ft | 429 kts | 56° |
| 2026-05-07 15:36 | 41.53821 | 2.96907 | 23013 ft | 433 kts | 56° |
| 2026-05-07 15:36 | 41.55511 | 3.00249 | 23517 ft | 436 kts | 56° |
| 2026-05-07 15:37 | 41.57217 | 3.03624 | 23905 ft | 441 kts | 57° |
| 2026-05-07 15:37 | 41.58938 | 3.07034 | 24259 ft | 445 kts | 56° |
| 2026-05-07 15:37 | 41.60682 | 3.10493 | 24580 ft | 451 kts | 56° |
| 2026-05-07 15:37 | 41.62438 | 3.13979 | 24979 ft | 454 kts | 57° |
| 2026-05-07 15:38 | 41.64196 | 3.17474 | 25335 ft | 458 kts | 57° |
| 2026-05-07 15:38 | 41.65982 | 3.21027 | 25702 ft | 462 kts | 57° |
| 2026-05-07 15:38 | 41.67773 | 3.24597 | 26057 ft | 466 kts | 57° |
| 2026-05-07 15:38 | 41.69584 | 3.28209 | 26415 ft | 469 kts | 57° |
| 2026-05-07 15:39 | 41.71409 | 3.31852 | 26758 ft | 473 kts | 57° |
| 2026-05-07 15:39 | 41.73225 | 3.35554 | 27097 ft | 476 kts | 62° |
| 2026-05-07 15:39 | 41.74639 | 3.39564 | 27414 ft | 478 kts | 69° |
| 2026-05-07 15:39 | 41.75994 | 3.43652 | 27735 ft | 482 kts | 68° |
| 2026-05-07 15:40 | 41.77367 | 3.47774 | 28073 ft | 485 kts | 69° |
| 2026-05-07 15:40 | 41.78744 | 3.51918 | 28402 ft | 489 kts | 69° |
| 2026-05-07 15:40 | 41.80121 | 3.56073 | 28716 ft | 492 kts | 69° |
| 2026-05-07 15:40 | 41.81516 | 3.60287 | 29030 ft | 496 kts | 69° |
| 2026-05-07 15:41 | 41.82917 | 3.64528 | 29336 ft | 499 kts | 69° |
| 2026-05-07 15:41 | 41.84310 | 3.68748 | 29640 ft | 502 kts | 69° |
| 2026-05-07 15:41 | 41.85724 | 3.73042 | 29913 ft | 506 kts | 69° |
| 2026-05-07 15:41 | 41.87153 | 3.77385 | 29999 ft | 512 kts | 69° |
| 2026-05-07 15:42 | 41.90036 | 3.86168 | 29964 ft | 515 kts | 69° |
| 2026-05-07 15:42 | 41.92917 | 3.94977 | 29978 ft | 516 kts | 69° |
| 2026-05-07 15:43 | 41.95798 | 4.03820 | 29969 ft | 517 kts | 69° |
| 2026-05-07 15:43 | 41.98679 | 4.12689 | 29974 ft | 517 kts | 69° |
| 2026-05-07 15:44 | 42.01058 | 4.20034 | 29955 ft | 517 kts | 69° |
| 2026-05-07 15:44 | 42.03924 | 4.28911 | 29973 ft | 518 kts | 69° |
| 2026-05-07 15:45 | 42.06801 | 4.37786 | 29971 ft | 518 kts | 66° |
| 2026-05-07 15:45 | 42.08725 | 4.41881 | 29950 ft | 518 kts | 49° |
| 2026-05-07 15:45 | 42.11266 | 4.45278 | 30011 ft | 519 kts | 41° |
| 2026-05-07 15:46 | 42.19313 | 4.55129 | 29979 ft | 522 kts | 40° |
| 2026-05-07 15:47 | 42.24719 | 4.61657 | 29972 ft | 521 kts | 40° |
| 2026-05-07 15:47 | 42.30109 | 4.68177 | 29974 ft | 521 kts | 40° |
| 2026-05-07 15:48 | 42.35502 | 4.74716 | 29971 ft | 521 kts | 40° |
| 2026-05-07 15:48 | 42.40901 | 4.81278 | 29974 ft | 521 kts | 40° |
| 2026-05-07 15:49 | 42.46292 | 4.87846 | 29977 ft | 521 kts | 40° |
| 2026-05-07 15:49 | 42.51668 | 4.94413 | 29993 ft | 521 kts | 39° |
| 2026-05-07 15:50 | 42.57028 | 5.00974 | 29970 ft | 518 kts | 39° |
| 2026-05-07 15:50 | 42.62382 | 5.07544 | 29971 ft | 519 kts | 39° |
| 2026-05-07 15:51 | 42.67716 | 5.14106 | 29974 ft | 519 kts | 39° |
| 2026-05-07 15:51 | 42.73065 | 5.20702 | 29974 ft | 519 kts | 39° |
| 2026-05-07 15:52 | 42.78367 | 5.27257 | 29971 ft | 519 kts | 39° |
| 2026-05-07 15:52 | 42.83708 | 5.33876 | 29946 ft | 519 kts | 39° |
| 2026-05-07 15:53 | 42.89030 | 5.40486 | 29974 ft | 519 kts | 39° |
| 2026-05-07 15:53 | 42.94345 | 5.47105 | 29968 ft | 516 kts | 39° |
| 2026-05-07 15:54 | 42.99649 | 5.53726 | 29966 ft | 517 kts | 39° |
| 2026-05-07 15:54 | 43.04947 | 5.60356 | 29966 ft | 517 kts | 39° |
| 2026-05-07 15:55 | 43.10321 | 5.67096 | 30162 ft | 527 kts | 39° |
| 2026-05-07 15:55 | 43.13001 | 5.70464 | 30772 ft | 521 kts | 39° |
| 2026-05-07 15:55 | 43.15667 | 5.73816 | 31148 ft | 521 kts | 39° |
| 2026-05-07 15:55 | 43.18339 | 5.77181 | 31441 ft | 522 kts | 39° |
| 2026-05-07 15:56 | 43.21013 | 5.80552 | 31809 ft | 522 kts | 39° |
| 2026-05-07 15:56 | 43.23671 | 5.83914 | 32160 ft | 523 kts | 39° |
| 2026-05-07 15:56 | 43.26350 | 5.87304 | 32505 ft | 523 kts | 39° |
| 2026-05-07 15:56 | 43.29026 | 5.90693 | 32852 ft | 524 kts | 39° |
| 2026-05-07 15:57 | 43.31705 | 5.94089 | 33208 ft | 524 kts | 39° |
| 2026-05-07 15:57 | 43.34387 | 5.97492 | 33497 ft | 525 kts | 39° |
| 2026-05-07 15:57 | 43.37201 | 6.00627 | 33790 ft | 518 kts | 26° |
| 2026-05-07 15:57 | 43.40357 | 6.02928 | 34083 ft | 508 kts | 13° |
| 2026-05-07 15:58 | 43.43678 | 6.04120 | 34391 ft | 488 kts | 358° |
| 2026-05-07 15:58 | 43.47051 | 6.04631 | 34630 ft | 487 kts | 357° |
| 2026-05-07 15:58 | 43.50415 | 6.05069 | 34965 ft | 484 kts | 357° |
| 2026-05-07 15:58 | 43.53726 | 6.05452 | 35303 ft | 482 kts | 357° |
| 2026-05-07 15:59 | 43.57067 | 6.05811 | 35591 ft | 482 kts | 357° |
| 2026-05-07 15:59 | 43.60418 | 6.06156 | 35864 ft | 481 kts | 357° |
| 2026-05-07 15:59 | 43.63754 | 6.06494 | 36108 ft | 481 kts | 357° |
| 2026-05-07 15:59 | 43.67081 | 6.06830 | 36392 ft | 481 kts | 358° |
| 2026-05-07 16:00 | 43.70414 | 6.07167 | 36683 ft | 479 kts | 358° |
| 2026-05-07 16:00 | 43.73736 | 6.07503 | 36935 ft | 478 kts | 358° |
| 2026-05-07 16:00 | 43.77043 | 6.08241 | 36857 ft | 487 kts | 13° |
| 2026-05-07 16:01 | 43.83266 | 6.12090 | 36913 ft | 493 kts | 21° |
| 2026-05-07 16:01 | 43.89432 | 6.16216 | 36966 ft | 493 kts | 22° |
| 2026-05-07 16:02 | 43.95557 | 6.20394 | 36937 ft | 490 kts | 22° |
| 2026-05-07 16:02 | 44.01680 | 6.24584 | 36942 ft | 491 kts | 22° |
| 2026-05-07 16:03 | 44.07804 | 6.28787 | 36962 ft | 490 kts | 22° |
| 2026-05-07 16:03 | 44.13880 | 6.32965 | 36931 ft | 487 kts | 22° |
| 2026-05-07 16:04 | 44.19980 | 6.37169 | 36950 ft | 489 kts | 23° |
| 2026-05-07 16:04 | 44.26059 | 6.41367 | 36946 ft | 487 kts | 23° |
| 2026-05-07 16:05 | 44.32084 | 6.45538 | 36949 ft | 487 kts | 23° |
| 2026-05-07 16:05 | 44.38130 | 6.49733 | 36953 ft | 487 kts | 23° |
| 2026-05-07 16:06 | 44.44208 | 6.53960 | 36971 ft | 486 kts | 23° |
| 2026-05-07 16:06 | 44.50258 | 6.58175 | 36904 ft | 483 kts | 23° |
| 2026-05-07 16:07 | 44.56275 | 6.62378 | 36960 ft | 484 kts | 23° |
| 2026-05-07 16:07 | 44.62301 | 6.66596 | 36913 ft | 484 kts | 23° |
| 2026-05-07 16:08 | 44.68329 | 6.70830 | 36934 ft | 484 kts | 23° |
| 2026-05-07 16:08 | 44.74355 | 6.75066 | 36955 ft | 484 kts | 23° |
| 2026-05-07 16:09 | 44.80554 | 6.78410 | 36940 ft | 470 kts | 1° |
| 2026-05-07 16:09 | 44.86981 | 6.78466 | 36932 ft | 465 kts | 353° |
| 2026-05-07 16:10 | 44.93451 | 6.78144 | 36954 ft | 464 kts | 352° |
| 2026-05-07 16:10 | 44.99889 | 6.77735 | 36980 ft | 462 kts | 352° |
| 2026-05-07 16:11 | 45.06314 | 6.77311 | 36973 ft | 464 kts | 352° |
| 2026-05-07 16:11 | 45.12754 | 6.76885 | 36974 ft | 463 kts | 352° |
| 2026-05-07 16:12 | 45.19188 | 6.76457 | 36966 ft | 462 kts | 352° |
| 2026-05-07 16:12 | 45.25626 | 6.76029 | 36955 ft | 462 kts | 352° |
| 2026-05-07 16:13 | 45.32008 | 6.75605 | 36976 ft | 461 kts | 352° |
| 2026-05-07 16:13 | 45.38393 | 6.75177 | 36984 ft | 462 kts | 352° |
| 2026-05-07 16:14 | 45.44820 | 6.74745 | 36974 ft | 461 kts | 352° |
| 2026-05-07 16:14 | 45.51218 | 6.74309 | 36976 ft | 460 kts | 352° |
| 2026-05-07 16:15 | 45.57610 | 6.73873 | 36992 ft | 459 kts | 352° |
| 2026-05-07 16:15 | 45.64013 | 6.73434 | 36993 ft | 461 kts | 352° |
| 2026-05-07 16:16 | 45.70484 | 6.72987 | 36932 ft | 472 kts | 352° |
| 2026-05-07 16:16 | 45.77055 | 6.72537 | 37002 ft | 474 kts | 352° |
| 2026-05-07 16:16 | 45.80315 | 6.72704 | 36912 ft | 481 kts | 6° |
| 2026-05-07 16:17 | 45.83567 | 6.74108 | 36957 ft | 486 kts | 20° |
| 2026-05-07 16:17 | 45.89745 | 6.78019 | 36943 ft | 489 kts | 20° |
| 2026-05-07 16:18 | 45.95999 | 6.82073 | 36965 ft | 491 kts | 21° |
| 2026-05-07 16:18 | 46.02203 | 6.86136 | 36979 ft | 490 kts | 20° |
| 2026-05-07 16:19 | 46.08384 | 6.90196 | 36964 ft | 490 kts | 20° |
| 2026-05-07 16:19 | 46.14581 | 6.94276 | 37041 ft | 490 kts | 20° |
| 2026-05-07 16:19 | 46.17689 | 6.96327 | 36927 ft | 489 kts | 21° |
| 2026-05-07 16:20 | 46.20772 | 6.98365 | 36983 ft | 487 kts | 21° |
| 2026-05-07 16:20 | 46.26931 | 7.02440 | 36944 ft | 487 kts | 21° |
| 2026-05-07 16:21 | 46.33054 | 7.06503 | 36967 ft | 488 kts | 21° |
| 2026-05-07 16:21 | 46.39214 | 7.10600 | 36982 ft | 487 kts | 21° |
| 2026-05-07 16:22 | 46.45367 | 7.14702 | 37003 ft | 486 kts | 21° |
| 2026-05-07 16:22 | 46.51493 | 7.18797 | 37010 ft | 487 kts | 21° |
| 2026-05-07 16:23 | 46.57657 | 7.22926 | 36993 ft | 486 kts | 21° |
| 2026-05-07 16:23 | 46.63806 | 7.27059 | 37014 ft | 487 kts | 21° |
| 2026-05-07 16:24 | 46.69951 | 7.31198 | 37006 ft | 487 kts | 21° |
| 2026-05-07 16:24 | 46.76082 | 7.35339 | 37002 ft | 486 kts | 21° |
| 2026-05-07 16:25 | 46.82218 | 7.39506 | 36991 ft | 487 kts | 24° |
| 2026-05-07 16:25 | 46.85054 | 7.42226 | 36979 ft | 492 kts | 39° |
| 2026-05-07 16:25 | 46.87381 | 7.45897 | 37009 ft | 496 kts | 49° |
| 2026-05-07 16:26 | 46.91735 | 7.53718 | 37013 ft | 497 kts | 49° |
| 2026-05-07 16:26 | 46.96045 | 7.61626 | 37004 ft | 496 kts | 50° |
| 2026-05-07 16:27 | 47.00330 | 7.69546 | 36998 ft | 496 kts | 50° |
| 2026-05-07 16:27 | 47.04606 | 7.77472 | 37004 ft | 496 kts | 50° |
| 2026-05-07 16:28 | 47.08171 | 7.84099 | 37011 ft | 496 kts | 50° |
| 2026-05-07 16:28 | 47.12410 | 7.91996 | 37015 ft | 495 kts | 50° |
| 2026-05-07 16:29 | 47.16232 | 8.00408 | 37041 ft | 495 kts | 56° |
| 2026-05-07 16:29 | 47.19898 | 8.08986 | 37004 ft | 495 kts | 56° |
| 2026-05-07 16:30 | 47.23543 | 8.17556 | 37002 ft | 495 kts | 56° |
| 2026-05-07 16:30 | 47.25346 | 8.21806 | 36470 ft | 488 kts | 56° |
| 2026-05-07 16:30 | 47.27151 | 8.26064 | 35460 ft | 494 kts | 56° |
| 2026-05-07 16:30 | 47.28956 | 8.30332 | 34678 ft | 486 kts | 56° |
| 2026-05-07 16:31 | 47.30845 | 8.34409 | 33840 ft | 478 kts | 46° |
| 2026-05-07 16:31 | 47.33068 | 8.38035 | 32913 ft | 478 kts | 45° |
| 2026-05-07 16:31 | 47.35274 | 8.41702 | 32247 ft | 479 kts | 45° |
| 2026-05-07 16:31 | 47.37472 | 8.45359 | 31802 ft | 480 kts | 45° |
| 2026-05-07 16:32 | 47.39691 | 8.49055 | 31339 ft | 482 kts | 45° |
| 2026-05-07 16:32 | 47.41914 | 8.52757 | 30787 ft | 481 kts | 45° |
| 2026-05-07 16:32 | 47.44132 | 8.56461 | 30153 ft | 480 kts | 46° |
| 2026-05-07 16:32 | 47.46341 | 8.60151 | 29468 ft | 481 kts | 46° |
| 2026-05-07 16:33 | 47.48559 | 8.63862 | 28890 ft | 482 kts | 46° |
| 2026-05-07 16:33 | 47.50778 | 8.67581 | 28301 ft | 481 kts | 46° |
| 2026-05-07 16:33 | 47.52983 | 8.71280 | 27727 ft | 482 kts | 46° |
| 2026-05-07 16:33 | 47.55202 | 8.75010 | 27132 ft | 484 kts | 47° |
| 2026-05-07 16:34 | 47.57427 | 8.78751 | 26546 ft | 485 kts | 47° |
| 2026-05-07 16:34 | 47.59590 | 8.82587 | 25911 ft | 487 kts | 54° |
| 2026-05-07 16:34 | 47.61362 | 8.86859 | 25291 ft | 483 kts | 57° |
| 2026-05-07 16:34 | 47.63112 | 8.91075 | 24768 ft | 480 kts | 57° |
| 2026-05-07 16:35 | 47.64860 | 8.95272 | 24199 ft | 476 kts | 57° |
| 2026-05-07 16:35 | 47.66593 | 8.99432 | 23651 ft | 471 kts | 57° |
| 2026-05-07 16:35 | 47.68295 | 9.03524 | 23012 ft | 467 kts | 57° |
| 2026-05-07 16:35 | 47.69999 | 9.07627 | 22453 ft | 464 kts | 57° |
| 2026-05-07 16:36 | 47.71685 | 9.11679 | 21894 ft | 460 kts | 57° |
| 2026-05-07 16:36 | 47.73337 | 9.15640 | 21334 ft | 448 kts | 57° |
| 2026-05-07 16:36 | 47.74935 | 9.19479 | 20908 ft | 426 kts | 57° |
| 2026-05-07 16:36 | 47.76474 | 9.23181 | 20456 ft | 408 kts | 57° |
| 2026-05-07 16:37 | 47.78153 | 9.26465 | 19919 ft | 393 kts | 42° |
| 2026-05-07 16:37 | 47.80355 | 9.28707 | 19517 ft | 375 kts | 22° |
| 2026-05-07 16:37 | 47.82751 | 9.29764 | 19121 ft | 360 kts | 6° |
| 2026-05-07 16:37 | 47.85206 | 9.30183 | 18741 ft | 354 kts | 4° |
| 2026-05-07 16:38 | 47.87697 | 9.30505 | 18293 ft | 363 kts | 2° |
| 2026-05-07 16:38 | 47.90231 | 9.30767 | 17847 ft | 367 kts | 1° |
| 2026-05-07 16:38 | 47.92777 | 9.30999 | 17438 ft | 367 kts | 1° |
| 2026-05-07 16:38 | 47.95307 | 9.31210 | 17041 ft | 365 kts | 1° |
| 2026-05-07 16:39 | 47.97837 | 9.31408 | 16640 ft | 363 kts | 1° |
| 2026-05-07 16:39 | 48.00359 | 9.31603 | 16250 ft | 361 kts | 0° |
| 2026-05-07 16:39 | 48.02864 | 9.31795 | 15854 ft | 359 kts | 0° |
| 2026-05-07 16:39 | 48.05355 | 9.31985 | 15465 ft | 357 kts | 0° |
| 2026-05-07 16:40 | 48.07817 | 9.32174 | 15070 ft | 355 kts | 0° |
| 2026-05-07 16:40 | 48.10272 | 9.32361 | 14697 ft | 352 kts | 0° |
| 2026-05-07 16:40 | 48.12713 | 9.32547 | 14312 ft | 350 kts | 0° |
| 2026-05-07 16:40 | 48.15139 | 9.32732 | 13931 ft | 348 kts | 0° |
| 2026-05-07 16:41 | 48.17544 | 9.33018 | 13497 ft | 347 kts | 4° |
| 2026-05-07 16:41 | 48.19942 | 9.33422 | 13024 ft | 345 kts | 4° |
| 2026-05-07 16:41 | 48.22322 | 9.33809 | 12652 ft | 344 kts | 4° |
| 2026-05-07 16:41 | 48.24696 | 9.34188 | 12281 ft | 343 kts | 4° |
| 2026-05-07 16:42 | 48.27058 | 9.34562 | 11899 ft | 339 kts | 3° |
| 2026-05-07 16:42 | 48.29396 | 9.34932 | 11508 ft | 337 kts | 4° |
| 2026-05-07 16:42 | 48.31723 | 9.35300 | 11140 ft | 336 kts | 4° |
| 2026-05-07 16:42 | 48.34016 | 9.35663 | 10871 ft | 325 kts | 4° |
| 2026-05-07 16:43 | 48.36193 | 9.36025 | 10741 ft | 305 kts | 7° |
| 2026-05-07 16:43 | 48.38150 | 9.37008 | 10576 ft | 291 kts | 23° |
| 2026-05-07 16:43 | 48.39942 | 9.38226 | 10452 ft | 274 kts | 21° |
| 2026-05-07 16:43 | 48.41668 | 9.39378 | 10341 ft | 272 kts | 21° |
| 2026-05-07 16:44 | 48.43433 | 9.40565 | 10208 ft | 282 kts | 22° |
| 2026-05-07 16:44 | 48.45244 | 9.41789 | 10040 ft | 287 kts | 22° |
| 2026-05-07 16:44 | 48.47081 | 9.43025 | 9729 ft | 290 kts | 22° |
| 2026-05-07 16:44 | 48.48939 | 9.44288 | 9148 ft | 296 kts | 22° |
| 2026-05-07 16:45 | 48.50824 | 9.45573 | 8532 ft | 296 kts | 22° |
| 2026-05-07 16:45 | 48.52664 | 9.46828 | 7995 ft | 292 kts | 22° |
| 2026-05-07 16:45 | 48.54507 | 9.48082 | 7430 ft | 289 kts | 22° |
| 2026-05-07 16:45 | 48.56312 | 9.49313 | 6893 ft | 283 kts | 22° |
| 2026-05-07 16:46 | 48.58085 | 9.50524 | 6475 ft | 274 kts | 22° |
| 2026-05-07 16:46 | 48.59781 | 9.51682 | 6169 ft | 262 kts | 22° |
| 2026-05-07 16:46 | 48.61404 | 9.52791 | 5905 ft | 249 kts | 22° |
| 2026-05-07 16:46 | 48.62955 | 9.53851 | 5555 ft | 241 kts | 22° |
| 2026-05-07 16:47 | 48.64465 | 9.54883 | 5183 ft | 236 kts | 22° |
| 2026-05-07 16:47 | 48.65928 | 9.55885 | 4949 ft | 224 kts | 22° |
| 2026-05-07 16:47 | 48.67310 | 9.56743 | 4812 ft | 206 kts | 9° |
| 2026-05-07 16:47 | 48.68634 | 9.56581 | 4764 ft | 180 kts | 335° |
| 2026-05-07 16:48 | 48.69597 | 9.55521 | 4682 ft | 170 kts | 311° |
| 2026-05-07 16:48 | 48.70373 | 9.54166 | 4627 ft | 170 kts | 309° |
| 2026-05-07 16:48 | 48.71120 | 9.52807 | 4513 ft | 166 kts | 308° |
| 2026-05-07 16:48 | 48.71842 | 9.51452 | 4406 ft | 165 kts | 308° |
| 2026-05-07 16:49 | 48.72559 | 9.50079 | 4288 ft | 166 kts | 308° |
| 2026-05-07 16:49 | 48.73242 | 9.48661 | 4148 ft | 166 kts | 295° |
| 2026-05-07 16:49 | 48.73453 | 9.46961 | 4021 ft | 167 kts | 272° |
| 2026-05-07 16:49 | 48.73339 | 9.45278 | 3893 ft | 154 kts | 261° |
| 2026-05-07 16:50 | 48.73060 | 9.43730 | 3750 ft | 151 kts | 257° |
| 2026-05-07 16:50 | 48.72769 | 9.42221 | 3580 ft | 148 kts | 258° |
| 2026-05-07 16:50 | 48.72486 | 9.40726 | 3397 ft | 147 kts | 258° |
| 2026-05-07 16:50 | 48.72202 | 9.39234 | 3201 ft | 148 kts | 258° |
| 2026-05-07 16:51 | 48.71924 | 9.37738 | 3004 ft | 148 kts | 257° |
| 2026-05-07 16:51 | 48.71638 | 9.36235 | 2832 ft | 149 kts | 258° |
| 2026-05-07 16:51 | 48.71353 | 9.34724 | 2629 ft | 149 kts | 257° |
| 2026-05-07 16:51 | 48.71072 | 9.33231 | 2444 ft | 149 kts | 258° |
| 2026-05-07 16:52 | 48.70788 | 9.31732 | 2233 ft | 149 kts | 258° |
| 2026-05-07 16:52 | 48.70503 | 9.30230 | 2032 ft | 149 kts | 257° |
| 2026-05-07 16:52 | 48.70214 | 9.28730 | 1862 ft | 148 kts | 258° |
| 2026-05-07 16:52 | 48.69941 | 9.27227 | 1692 ft | 148 kts | 257° |
| 2026-05-07 16:53 | 48.69661 | 9.25734 | 1517 ft | 147 kts | 257° |
| 2026-05-07 16:53 | 48.69381 | 9.24286 | 1341 ft | 141 kts | 256° |
| 2026-05-07 16:53 | 48.69138 | 9.22979 | 1288 ft | 110 kts | 254° |
| 2026-05-07 16:53 | 48.68961 | 9.22045 | 1288 ft | 75 kts | 254° |
| 2026-05-07 16:54 | 48.68846 | 9.21436 | 1288 ft | 51 kts | 252° |
| 2026-05-07 16:54 | 48.68820 | 9.21063 | 1288 ft | 26 kts | 274° |
| 2026-05-07 16:54 | 48.68865 | 9.20801 | 1288 ft | 26 kts | 284° |
| 2026-05-07 16:54 | 48.68971 | 9.20612 | 1288 ft | 22 kts | 317° |
| 2026-05-07 16:55 | 48.69059 | 9.20438 | 1288 ft | 19 kts | 267° |
| 2026-05-07 16:55 | 48.69022 | 9.20235 | 1288 ft | 21 kts | 254° |
| 2026-05-07 16:55 | 48.68975 | 9.20019 | 1288 ft | 22 kts | 238° |
| 2026-05-07 16:55 | 48.68889 | 9.19816 | 1288 ft | 24 kts | 243° |
| 2026-05-07 16:56 | 48.68848 | 9.19618 | 1288 ft | 15 kts | 254° |
| 2026-05-07 16:56 | 48.68848 | 9.19543 | 1288 ft | 6 kts | 315° |
| 2026-05-07 16:56 | 48.68907 | 9.19518 | 1288 ft | 0 kts | 345° |